עמוד ראשי
METAR-TAF:

METAR-TAF

שדות תעופה :

Oujda, מרוקו

קו רוחב: 34-47N, קו אורך: 001-56W, גובה: 468מטר

תצפית מזג אוויר נוכחית

הדו"ח נערך לפני 21דקות, בשעה 13:00 UTC
רוח 12קשר מכיוון צפון
טמפרטורת 33 צלסיוס
לחות 34%
לחץ 1010 hPa
ראות 10 קילומטר או יותר
ללא עננים שבסיסם נמוך מ 5000 רגל או קומולונימבוס

METAR: GMFO 251300Z 36012KT CAVOK 33/15 Q1010 NOSIG

זמן: 14:21 (13:21 UTC)

תחזית

הדו"ח נערך לפני 8 שעות ו 21דקות, בשעה 05:00 UTC
תחזית בתוקף מ 25 ב 06 UTC עד 26 ב 12 UTC
רוח 3קשר עם כיוונים משתנים
ראות 10 קילומטר או יותר
מעט עננים בגובה 3000רגל
יעשה מ
25 ב 12 UTC עד 25 ב 16 UTC
רוח 15קשר מכיוון צפון

TAF: GMFO 250500Z 2506/2612 VRB03KT 9999 FEW030 BECMG 2512/2516 35015KT

תצפיות ותחזיות מזג אוויר לגבי יותר מ- 4,000 שדות תעופה ברחבי העולם. דוחות METAR ו- TAF.

התחנות הזמינות מסומנות בנקודות צהובות ואדומות על גבי המפה.

העבר את העכבר לנקודה הצבעונית על מנת לראות את שם התחנה.

לאחר מכן, לחץ כדי לראות את תוכן ואת תחזיות מזג האוויר.

כדי לשנות את המפה: לחץ על הכפתורים הירוקים עם הפלוס השחור כדי להתקרב; על הכפתור הירוק עם המקף כדי להתרחק; או בחיצים הירוקים למפות סמוכות.


METAR-TAF: